Hauptseite
METAR-TAF:

METAR-TAF

Flughäfen :

Mexiko-Stadt, Mexiko

Flughafen Mexiko-Stadt

Breite: 19-26N, Länge: 099-06W, Höhe: 2238 m

Beobachtung

Neuester Wetterbericht von vor 24 Minuten, um 05:50 UTC
Wind 5 kt aus Nordwest
Temperatur 16°C
Luftfeuchtigkeit 31%
Luftdruck 1029 hPa
Sichtweite: 19.3 km
Himmel klar

METAR: MMMX 230550Z 31005KT 12SM SKC 16/M01 A3038 NOSIG RMK SLP109 52002 953

Zeit: 00:14 (06:14 UTC)

Prognose

Neuester Wetterbericht von vor 1 Stunde und 59 Minuten, um 04:15 UTC
Gültige Prognose vom 23 um 06 UTC bis 24 um 12 UTC
Wind 6 kt aus Nordost
Sichtweite: 10 km
Himmel klar
Ab 23 um 1800 UTC
Wind 12 kt aus Nord/Nordost
Sichtweite: 10 km
Himmel klar
Übergehend zu
vom 24 um 05 UTC bis 24 um 07 UTC
Wind 5 kt aus West/Südwest

TAF: MMMX 230415Z 2306/2412 04006KT P6SM SKC TX25/2322Z TN08/2312Z FM231800 02012KT P6SM SKC BECMG 2405/2407 25005KT

Wetterbeobachtungen und Prognosen von mehr als 4000 Flughäfen (METAR und TAF Bericht).

Die verfügbaren Stationen werden durch gelbe und rote Markierungen auf der Karte dargestellt.

Führen Sie die Maus auf sie, um den Namen der Station zu sehen.

Darauf klicken, um die Beobachtung von Wetterbeobachtungen und Prognosen zu sehen.

Um die Karte zu ändern : klicken Sie auf den grünen Tasten mit einem schwarzen Kreuz Zum Vergrößern, auf den grünen Button mit einem Gedankenstrich zu verkleinern, oder auf die grünen Pfeile für benachbarte Karten.


METAR-TAF: